createdAt,value
2022-12-03T00:03:18.064Z,2.80
2022-12-03T00:08:19.931Z,2.80
2022-12-03T00:13:21.739Z,2.80
2022-12-03T00:18:23.504Z,2.90
2022-12-03T00:23:25.315Z,2.90
2022-12-03T00:28:27.327Z,2.90
2022-12-03T00:33:29.148Z,2.80
2022-12-03T00:38:30.919Z,2.80
2022-12-03T00:43:32.789Z,2.90
2022-12-03T00:48:34.740Z,2.90
2022-12-03T00:53:36.477Z,2.80
2022-12-03T00:58:38.216Z,2.80
2022-12-03T01:03:39.977Z,2.80
2022-12-03T01:08:41.717Z,2.80
2022-12-03T01:13:43.445Z,2.80
2022-12-03T01:18:46.257Z,2.80
2022-12-03T01:23:48.092Z,2.80
2022-12-03T01:28:49.859Z,2.80
2022-12-03T01:33:51.607Z,2.90
2022-12-03T01:38:53.334Z,2.80
2022-12-03T01:43:56.812Z,2.90
2022-12-03T01:48:58.772Z,2.80
2022-12-03T01:54:02.417Z,2.80
2022-12-03T01:59:04.185Z,2.70
2022-12-03T02:04:06.065Z,2.80
2022-12-03T02:09:11.167Z,2.90
2022-12-03T02:14:19.931Z,2.90
2022-12-03T02:19:26.710Z,3.00
2022-12-03T02:24:52.747Z,2.90
2022-12-03T02:29:55.020Z,2.90
2022-12-03T02:34:56.816Z,2.90
2022-12-03T02:40:02.898Z,2.90
2022-12-03T02:45:16.685Z,2.80
2022-12-03T02:50:26.248Z,2.80
2022-12-03T02:55:36.521Z,2.80
2022-12-03T03:00:39.758Z,2.80
2022-12-03T03:05:41.938Z,2.80
2022-12-03T03:10:44.650Z,2.80
2022-12-03T03:15:48.333Z,2.80
2022-12-03T03:20:50.289Z,2.80
2022-12-03T03:26:00.481Z,2.70
2022-12-03T03:31:04.183Z,2.80
2022-12-03T03:36:06.854Z,2.80
2022-12-03T03:41:10.099Z,2.80
2022-12-03T03:46:13.327Z,2.80
2022-12-03T03:51:17.279Z,2.80
2022-12-03T03:56:20.530Z,2.80
2022-12-03T04:01:23.827Z,2.80
2022-12-03T04:06:28.963Z,2.70
2022-12-03T04:11:50.972Z,2.80
2022-12-03T04:16:52.789Z,2.80
2022-12-03T04:22:13.469Z,2.80
2022-12-03T04:27:34.070Z,2.80
2022-12-03T04:32:54.600Z,2.90
2022-12-03T04:37:56.447Z,2.90
2022-12-03T04:42:58.200Z,2.90
2022-12-03T04:47:59.968Z,2.90
2022-12-03T04:53:01.701Z,2.90
2022-12-03T04:58:03.799Z,2.90
2022-12-03T05:03:05.635Z,2.80
2022-12-03T05:08:08.256Z,2.80
2022-12-03T05:13:10.137Z,2.80
2022-12-03T05:18:11.878Z,2.90
2022-12-03T05:23:14.508Z,2.90
2022-12-03T05:28:16.351Z,2.90
2022-12-03T05:33:18.504Z,2.90
2022-12-03T05:38:20.316Z,2.90
2022-12-03T05:43:22.218Z,2.90
2022-12-03T05:48:23.976Z,2.90
2022-12-03T05:53:25.829Z,2.90
2022-12-03T05:58:27.590Z,3.00
2022-12-03T06:03:29.452Z,2.80
2022-12-03T06:08:31.223Z,2.90
2022-12-03T06:13:32.961Z,3.00
2022-12-03T06:18:34.751Z,2.80
2022-12-03T06:23:37.311Z,2.90
2022-12-03T06:28:39.080Z,3.00
2022-12-03T06:33:40.800Z,3.00
2022-12-03T06:38:42.521Z,3.00
2022-12-03T06:43:44.277Z,3.00
2022-12-03T06:48:46.043Z,2.90
2022-12-03T06:53:47.779Z,3.00
2022-12-03T06:58:50.416Z,3.00
2022-12-03T07:03:52.273Z,3.00
2022-12-03T07:08:54.005Z,3.00
2022-12-03T07:14:00.080Z,3.00
2022-12-03T07:19:06.361Z,3.00
2022-12-03T07:24:08.483Z,3.00
2022-12-03T07:29:10.245Z,3.00
2022-12-03T07:34:12.181Z,3.00
2022-12-03T07:39:14.139Z,3.00
2022-12-03T07:44:15.918Z,3.00
2022-12-03T07:49:17.734Z,3.10
2022-12-03T07:54:20.582Z,3.10
2022-12-03T07:59:22.417Z,3.10
2022-12-03T08:04:24.172Z,3.10
2022-12-03T08:09:26.512Z,3.10
2022-12-03T08:14:28.547Z,3.20
2022-12-03T08:19:30.283Z,3.20
2022-12-03T08:24:32.055Z,3.20
2022-12-03T08:29:33.882Z,3.20
2022-12-03T08:34:40.687Z,3.30
2022-12-03T08:39:51.842Z,3.30
2022-12-03T08:44:55.342Z,3.30
2022-12-03T08:50:03.345Z,3.30
2022-12-03T08:55:32.358Z,3.30
2022-12-03T09:00:34.249Z,3.30
2022-12-03T09:05:37.257Z,3.30
2022-12-03T09:10:39.016Z,3.40
2022-12-03T09:15:40.931Z,3.30
2022-12-03T09:20:42.757Z,3.40
2022-12-03T09:25:44.522Z,3.40
2022-12-03T09:30:46.366Z,3.50
2022-12-03T09:35:48.267Z,3.50
2022-12-03T09:40:50.047Z,3.70
2022-12-03T09:45:51.916Z,3.90
2022-12-03T09:50:53.703Z,3.80
2022-12-03T09:55:59.399Z,4.00
2022-12-03T10:01:01.268Z,4.10
2022-12-03T10:06:03.101Z,4.30
2022-12-03T10:11:23.888Z,4.40
2022-12-03T10:16:29.701Z,4.50
2022-12-03T10:21:39.020Z,4.60
2022-12-03T10:26:40.995Z,4.60
2022-12-03T10:31:42.791Z,4.80
2022-12-03T10:36:44.571Z,4.70
2022-12-03T10:41:46.487Z,4.70
2022-12-03T10:47:09.333Z,4.80
2022-12-03T10:52:25.987Z,5.00
2022-12-03T10:57:28.183Z,5.00
2022-12-03T11:02:29.948Z,4.90
2022-12-03T11:07:32.151Z,5.00
2022-12-03T11:12:35.548Z,5.20
2022-12-03T11:17:49.497Z,4.90
2022-12-03T11:22:57.988Z,4.70
2022-12-03T11:28:12.203Z,5.00
2022-12-03T11:33:34.488Z,5.10
2022-12-03T11:38:53.704Z,5.10
2022-12-03T11:43:58.731Z,5.10
2022-12-03T11:49:00.617Z,5.20
2022-12-03T11:54:02.698Z,4.70
2022-12-03T11:59:12.525Z,4.70
2022-12-03T12:04:33.719Z,4.80
2022-12-03T12:09:53.470Z,4.80
2022-12-03T12:14:56.374Z,4.60
2022-12-03T12:20:12.477Z,4.30
2022-12-03T12:25:29.640Z,4.30
2022-12-03T12:30:31.594Z,4.30
2022-12-03T12:35:33.721Z,4.30
2022-12-03T12:40:38.426Z,4.20
2022-12-03T12:45:41.480Z,4.20
2022-12-03T12:50:45.869Z,4.10
2022-12-03T12:55:48.896Z,4.20
2022-12-03T13:00:53.247Z,4.20
2022-12-03T13:05:56.712Z,4.20
2022-12-03T13:11:00.541Z,4.00
2022-12-03T13:16:22.106Z,4.00
2022-12-03T13:21:26.898Z,3.80
2022-12-03T13:26:40.781Z,3.80
2022-12-03T13:31:54.556Z,4.00
2022-12-03T13:36:58.439Z,4.00
2022-12-03T13:42:42.235Z,3.90
2022-12-03T13:47:48.363Z,3.90
2022-12-03T13:52:50.233Z,3.90
2022-12-03T13:57:52.371Z,3.60
2022-12-03T14:02:54.272Z,3.80
2022-12-03T14:08:02.117Z,4.00
2022-12-03T14:13:04.099Z,3.90
2022-12-03T14:18:05.898Z,3.60
2022-12-03T14:23:07.690Z,3.90
2022-12-03T14:28:10.065Z,3.80
2022-12-03T14:33:11.902Z,3.80
2022-12-03T14:38:13.699Z,3.70
2022-12-03T14:43:15.455Z,3.60
2022-12-03T14:48:17.229Z,3.70
2022-12-03T14:53:22.690Z,3.70
2022-12-03T14:58:27.528Z,3.80
2022-12-03T15:03:29.271Z,3.70
2022-12-03T15:08:31.052Z,3.70
2022-12-03T15:13:32.923Z,3.80
2022-12-03T15:18:35.320Z,3.70
2022-12-03T15:23:37.093Z,3.70
2022-12-03T15:28:38.852Z,3.60
2022-12-03T15:33:40.569Z,3.60
2022-12-03T15:38:42.431Z,3.60
2022-12-03T15:43:44.178Z,3.70
2022-12-03T15:48:46.376Z,3.50
2022-12-03T15:53:48.296Z,3.40
2022-12-03T15:58:50.033Z,3.60
2022-12-03T16:03:51.787Z,3.50
2022-12-03T16:08:53.534Z,3.40
2022-12-03T16:13:55.316Z,3.30
2022-12-03T16:18:57.082Z,3.50
2022-12-03T16:24:00.293Z,3.60
2022-12-03T16:29:02.103Z,3.20
2022-12-03T16:34:03.935Z,3.40
2022-12-03T16:39:06.167Z,3.40
2022-12-03T16:44:09.648Z,3.30
2022-12-03T16:49:11.494Z,3.40
2022-12-03T16:54:13.257Z,3.30
2022-12-03T16:59:15.031Z,3.30
2022-12-03T17:04:16.758Z,3.40
2022-12-03T17:09:20.181Z,3.50
2022-12-03T17:14:21.950Z,3.50
2022-12-03T17:19:23.710Z,3.40
2022-12-03T17:24:25.495Z,3.50
2022-12-03T17:29:27.227Z,3.40
2022-12-03T17:34:28.971Z,3.30
2022-12-03T17:39:30.690Z,3.30
2022-12-03T17:44:32.480Z,3.30
2022-12-03T17:49:34.222Z,3.30
2022-12-03T17:54:55.553Z,3.20
2022-12-03T17:59:59.493Z,3.20
2022-12-03T18:05:01.315Z,3.20
2022-12-03T18:10:03.249Z,3.10
2022-12-03T18:15:05.429Z,3.20
2022-12-03T18:20:07.737Z,3.30
2022-12-03T18:25:10.033Z,3.20
2022-12-03T18:30:12.238Z,3.10
2022-12-03T18:35:14.240Z,3.10
2022-12-03T18:40:24.723Z,3.10
2022-12-03T18:45:27.954Z,3.10
2022-12-03T18:50:29.900Z,3.10
2022-12-03T18:55:35.421Z,3.10
2022-12-03T19:00:38.314Z,3.20
2022-12-03T19:05:40.176Z,3.20
2022-12-03T19:10:43.030Z,3.10
2022-12-03T19:15:46.272Z,2.90
2022-12-03T19:20:48.416Z,3.00
2022-12-03T19:25:57.775Z,3.20
2022-12-03T19:31:12.855Z,3.10
2022-12-03T19:36:24.082Z,3.00
2022-12-03T19:41:28.432Z,3.20
2022-12-03T19:46:30.706Z,2.90
2022-12-03T19:51:35.310Z,3.00
2022-12-03T19:56:38.161Z,3.10
2022-12-03T20:01:40.783Z,3.20
2022-12-03T20:06:42.773Z,3.20
2022-12-03T20:11:45.780Z,3.10
2022-12-03T20:16:47.915Z,2.90
2022-12-03T20:21:49.687Z,3.00
2022-12-03T20:26:51.441Z,3.00
2022-12-03T20:31:53.285Z,3.00
2022-12-03T20:36:55.133Z,2.90
2022-12-03T20:41:56.943Z,3.00
2022-12-03T20:46:58.764Z,3.00
2022-12-03T20:52:04.308Z,2.90
2022-12-03T20:57:06.611Z,2.90
2022-12-03T21:02:09.644Z,3.00
2022-12-03T21:07:11.448Z,2.90
2022-12-03T21:12:13.157Z,3.10
2022-12-03T21:17:14.951Z,3.10
2022-12-03T21:22:16.769Z,3.00
2022-12-03T21:27:21.808Z,3.00
2022-12-03T21:32:23.840Z,3.10
2022-12-03T21:37:25.556Z,3.00
2022-12-03T21:42:36.043Z,3.20
2022-12-03T21:47:39.284Z,3.10
2022-12-03T21:52:41.340Z,3.10
2022-12-03T21:57:43.215Z,3.20
2022-12-03T22:02:45.158Z,3.20
2022-12-03T22:07:47.143Z,3.10
2022-12-03T22:12:48.916Z,3.30
2022-12-03T22:17:50.695Z,3.30
2022-12-03T22:22:52.433Z,3.20
2022-12-03T22:27:54.179Z,3.30
2022-12-03T22:32:55.930Z,3.20
2022-12-03T22:37:57.689Z,3.10
2022-12-03T22:42:59.429Z,3.20
2022-12-03T22:48:02.626Z,3.20
2022-12-03T22:53:04.362Z,3.20
2022-12-03T22:58:06.727Z,3.20
2022-12-03T23:03:08.789Z,3.20
2022-12-03T23:08:13.802Z,3.20
2022-12-03T23:13:16.483Z,3.20
2022-12-03T23:18:19.869Z,3.30
2022-12-03T23:23:23.998Z,3.40
2022-12-03T23:28:26.697Z,3.40
2022-12-03T23:33:29.000Z,3.40
2022-12-03T23:38:30.738Z,3.30
2022-12-03T23:43:32.485Z,3.40
2022-12-03T23:48:34.323Z,3.40
2022-12-03T23:53:37.381Z,3.40
2022-12-03T23:58:39.335Z,3.40
